Mayfield, Nebraska
Current Conditions -  °F | °C
As of 2:53 PM on Friday 31 Oct 2014 (Local Time) from KGRI Reporting Station
Clear Clear  
Wind Chill: 39°   Ceiling: Unl
Heat Index: 42°   Visibility: 10mi
Dew Point: 14°   Wind: 5mph
Humidity: 32%   Direction: 100°E
Pressure: 30.49"   Gusts: NA
Location:  41.0079°N, 98.6613°W
Report Text: KGRI 311953Z 10004KT 10SM CLR 06/M10 A3049 RMK AO2 SLP338 T00561100
Loading
Personal Weather Stations






























Interactive Weather Map
Tropical Storm Tracking
New forecast layout! Learn more

10-Day Weather Forecast

Advertisements
Track Severe Weather on mobile